sensor_id;sensor_type;location;lat;lon;timestamp;P1;durP1;ratioP1;P2;durP2;ratioP2
17422;SDS011;8829;47.932;7.810;2024-03-17T00:01:10;2.43;;;1.33;;
17422;SDS011;8829;47.932;7.810;2024-03-17T00:03:37;2.17;;;1.07;;
17422;SDS011;8829;47.932;7.810;2024-03-17T00:06:04;3.27;;;1.43;;
17422;SDS011;8829;47.932;7.810;2024-03-17T00:08:31;6.63;;;2.13;;
17422;SDS011;8829;47.932;7.810;2024-03-17T00:10:57;5.07;;;1.57;;
17422;SDS011;8829;47.932;7.810;2024-03-17T00:13:24;0.93;;;0.93;;
17422;SDS011;8829;47.932;7.810;2024-03-17T00:15:51;1.57;;;1.10;;
17422;SDS011;8829;47.932;7.810;2024-03-17T00:18:18;1.77;;;1.23;;
17422;SDS011;8829;47.932;7.810;2024-03-17T00:20:43;6.97;;;1.47;;
17422;SDS011;8829;47.932;7.810;2024-03-17T00:23:11;2.60;;;1.00;;
17422;SDS011;8829;47.932;7.810;2024-03-17T00:25:37;3.20;;;1.23;;
17422;SDS011;8829;47.932;7.810;2024-03-17T00:28:04;3.80;;;1.03;;
17422;SDS011;8829;47.932;7.810;2024-03-17T00:30:30;2.60;;;1.20;;
17422;SDS011;8829;47.932;7.810;2024-03-17T00:32:57;3.03;;;1.03;;
17422;SDS011;8829;47.932;7.810;2024-03-17T00:35:24;3.50;;;1.20;;
17422;SDS011;8829;47.932;7.810;2024-03-17T00:37:51;3.60;;;1.10;;
17422;SDS011;8829;47.932;7.810;2024-03-17T00:40:19;4.77;;;1.20;;
17422;SDS011;8829;47.932;7.810;2024-03-17T00:42:47;2.00;;;1.07;;
17422;SDS011;8829;47.932;7.810;2024-03-17T00:45:12;2.77;;;1.20;;
17422;SDS011;8829;47.932;7.810;2024-03-17T00:47:39;2.17;;;1.40;;
17422;SDS011;8829;47.932;7.810;2024-03-17T00:50:06;3.60;;;1.37;;
17422;SDS011;8829;47.932;7.810;2024-03-17T00:52:33;4.53;;;1.00;;
17422;SDS011;8829;47.932;7.810;2024-03-17T00:54:59;2.23;;;1.10;;
17422;SDS011;8829;47.932;7.810;2024-03-17T00:57:27;1.57;;;0.97;;
17422;SDS011;8829;47.932;7.810;2024-03-17T00:59:53;3.53;;;1.10;;
17422;SDS011;8829;47.932;7.810;2024-03-17T01:02:20;5.20;;;1.30;;
17422;SDS011;8829;47.932;7.810;2024-03-17T01:04:46;3.27;;;1.20;;
17422;SDS011;8829;47.932;7.810;2024-03-17T01:07:13;1.00;;;0.90;;
17422;SDS011;8829;47.932;7.810;2024-03-17T01:09:39;3.20;;;1.10;;
17422;SDS011;8829;47.932;7.810;2024-03-17T01:12:06;2.40;;;1.30;;
17422;SDS011;8829;47.932;7.810;2024-03-17T01:14:33;3.03;;;1.00;;
17422;SDS011;8829;47.932;7.810;2024-03-17T01:17:00;4.23;;;1.60;;
17422;SDS011;8829;47.932;7.810;2024-03-17T01:19:26;2.10;;;1.10;;
17422;SDS011;8829;47.932;7.810;2024-03-17T01:21:53;2.70;;;0.93;;
17422;SDS011;8829;47.932;7.810;2024-03-17T01:24:18;3.07;;;1.17;;
17422;SDS011;8829;47.932;7.810;2024-03-17T01:26:45;3.03;;;1.43;;
17422;SDS011;8829;47.932;7.810;2024-03-17T01:29:11;3.57;;;0.97;;
17422;SDS011;8829;47.932;7.810;2024-03-17T01:31:39;5.30;;;1.27;;
17422;SDS011;8829;47.932;7.810;2024-03-17T01:34:06;2.63;;;1.20;;
17422;SDS011;8829;47.932;7.810;2024-03-17T01:36:32;3.63;;;1.13;;
17422;SDS011;8829;47.932;7.810;2024-03-17T01:38:59;5.30;;;1.30;;
17422;SDS011;8829;47.932;7.810;2024-03-17T01:41:25;1.97;;;1.10;;
17422;SDS011;8829;47.932;7.810;2024-03-17T01:43:51;2.13;;;1.10;;
17422;SDS011;8829;47.932;7.810;2024-03-17T01:46:17;6.33;;;1.50;;
17422;SDS011;8829;47.932;7.810;2024-03-17T01:48:45;2.77;;;1.23;;
17422;SDS011;8829;47.932;7.810;2024-03-17T01:51:11;0.83;;;0.80;;
17422;SDS011;8829;47.932;7.810;2024-03-17T01:53:41;3.43;;;1.03;;
17422;SDS011;8829;47.932;7.810;2024-03-17T01:56:07;2.57;;;1.23;;
17422;SDS011;8829;47.932;7.810;2024-03-17T01:58:37;6.17;;;1.67;;
17422;SDS011;8829;47.932;7.810;2024-03-17T02:01:03;4.57;;;1.40;;
17422;SDS011;8829;47.932;7.810;2024-03-17T02:03:30;1.37;;;1.20;;
17422;SDS011;8829;47.932;7.810;2024-03-17T02:05:57;3.73;;;1.37;;
17422;SDS011;8829;47.932;7.810;2024-03-17T02:08:24;2.23;;;1.73;;
17422;SDS011;8829;47.932;7.810;2024-03-17T02:10:52;5.40;;;1.53;;
17422;SDS011;8829;47.932;7.810;2024-03-17T02:13:20;2.57;;;1.20;;
17422;SDS011;8829;47.932;7.810;2024-03-17T02:15:46;3.73;;;1.10;;
17422;SDS011;8829;47.932;7.810;2024-03-17T02:18:13;4.20;;;1.87;;
17422;SDS011;8829;47.932;7.810;2024-03-17T02:20:38;3.17;;;1.23;;
17422;SDS011;8829;47.932;7.810;2024-03-17T02:23:23;3.20;;;1.60;;
17422;SDS011;8829;47.932;7.810;2024-03-17T02:25:51;3.77;;;1.73;;
17422;SDS011;8829;47.932;7.810;2024-03-17T02:28:17;2.30;;;1.03;;
17422;SDS011;8829;47.932;7.810;2024-03-17T02:30:44;3.20;;;1.40;;
17422;SDS011;8829;47.932;7.810;2024-03-17T02:33:09;4.40;;;1.23;;
17422;SDS011;8829;47.932;7.810;2024-03-17T02:35:36;6.53;;;1.20;;
17422;SDS011;8829;47.932;7.810;2024-03-17T02:38:02;3.47;;;1.10;;
17422;SDS011;8829;47.932;7.810;2024-03-17T02:40:30;3.83;;;1.20;;
17422;SDS011;8829;47.932;7.810;2024-03-17T02:42:56;4.20;;;1.33;;
17422;SDS011;8829;47.932;7.810;2024-03-17T02:45:23;2.60;;;1.13;;
17422;SDS011;8829;47.932;7.810;2024-03-17T02:47:49;3.30;;;1.37;;
17422;SDS011;8829;47.932;7.810;2024-03-17T02:50:16;4.83;;;1.20;;
17422;SDS011;8829;47.932;7.810;2024-03-17T02:52:43;2.63;;;1.20;;
17422;SDS011;8829;47.932;7.810;2024-03-17T02:55:10;2.90;;;1.33;;
17422;SDS011;8829;47.932;7.810;2024-03-17T02:57:38;3.30;;;1.70;;
17422;SDS011;8829;47.932;7.810;2024-03-17T03:00:06;3.50;;;1.10;;
17422;SDS011;8829;47.932;7.810;2024-03-17T03:02:38;3.50;;;1.43;;
17422;SDS011;8829;47.932;7.810;2024-03-17T03:05:05;3.13;;;1.60;;
17422;SDS011;8829;47.932;7.810;2024-03-17T03:07:32;3.57;;;1.27;;
17422;SDS011;8829;47.932;7.810;2024-03-17T03:09:58;3.47;;;1.17;;
17422;SDS011;8829;47.932;7.810;2024-03-17T03:12:24;3.40;;;1.23;;
17422;SDS011;8829;47.932;7.810;2024-03-17T03:14:53;4.80;;;1.83;;
17422;SDS011;8829;47.932;7.810;2024-03-17T03:17:19;2.83;;;1.70;;
17422;SDS011;8829;47.932;7.810;2024-03-17T03:19:46;3.57;;;1.40;;
17422;SDS011;8829;47.932;7.810;2024-03-17T03:22:12;2.10;;;1.20;;
17422;SDS011;8829;47.932;7.810;2024-03-17T03:24:39;2.43;;;1.37;;
17422;SDS011;8829;47.932;7.810;2024-03-17T03:27:07;1.37;;;1.27;;
17422;SDS011;8829;47.932;7.810;2024-03-17T03:29:33;2.47;;;1.63;;
17422;SDS011;8829;47.932;7.810;2024-03-17T03:32:03;2.03;;;1.30;;
17422;SDS011;8829;47.932;7.810;2024-03-17T03:34:31;3.20;;;1.50;;
17422;SDS011;8829;47.932;7.810;2024-03-17T03:36:58;1.30;;;1.27;;
17422;SDS011;8829;47.932;7.810;2024-03-17T03:39:25;3.57;;;1.60;;
17422;SDS011;8829;47.932;7.810;2024-03-17T03:41:56;1.63;;;1.30;;
17422;SDS011;8829;47.932;7.810;2024-03-17T03:44:23;3.10;;;1.37;;
17422;SDS011;8829;47.932;7.810;2024-03-17T03:46:50;1.27;;;1.13;;
17422;SDS011;8829;47.932;7.810;2024-03-17T03:49:19;5.90;;;1.60;;
17422;SDS011;8829;47.932;7.810;2024-03-17T03:51:46;5.03;;;1.57;;
17422;SDS011;8829;47.932;7.810;2024-03-17T03:54:13;2.27;;;1.30;;
17422;SDS011;8829;47.932;7.810;2024-03-17T03:56:40;1.70;;;1.40;;
17422;SDS011;8829;47.932;7.810;2024-03-17T03:59:07;2.53;;;1.80;;
17422;SDS011;8829;47.932;7.810;2024-03-17T04:01:33;4.90;;;1.60;;
17422;SDS011;8829;47.932;7.810;2024-03-17T04:04:00;2.63;;;1.10;;
17422;SDS011;8829;47.932;7.810;2024-03-17T04:06:29;3.03;;;1.40;;
17422;SDS011;8829;47.932;7.810;2024-03-17T04:08:56;2.10;;;1.30;;
17422;SDS011;8829;47.932;7.810;2024-03-17T04:11:23;7.03;;;2.33;;
17422;SDS011;8829;47.932;7.810;2024-03-17T04:13:50;4.93;;;1.47;;
17422;SDS011;8829;47.932;7.810;2024-03-17T04:16:16;1.37;;;1.37;;
17422;SDS011;8829;47.932;7.810;2024-03-17T04:18:43;2.50;;;1.40;;
17422;SDS011;8829;47.932;7.810;2024-03-17T04:21:10;1.57;;;1.43;;
17422;SDS011;8829;47.932;7.810;2024-03-17T04:23:38;1.97;;;1.30;;
17422;SDS011;8829;47.932;7.810;2024-03-17T04:26:04;1.30;;;1.20;;
17422;SDS011;8829;47.932;7.810;2024-03-17T04:28:32;2.70;;;1.40;;
17422;SDS011;8829;47.932;7.810;2024-03-17T04:31:03;5.43;;;1.70;;
17422;SDS011;8829;47.932;7.810;2024-03-17T04:33:31;1.00;;;1.00;;
17422;SDS011;8829;47.932;7.810;2024-03-17T04:35:58;2.53;;;1.93;;
17422;SDS011;8829;47.932;7.810;2024-03-17T04:38:25;1.60;;;1.10;;
17422;SDS011;8829;47.932;7.810;2024-03-17T04:40:53;3.47;;;1.47;;
17422;SDS011;8829;47.932;7.810;2024-03-17T04:43:28;3.67;;;1.10;;
17422;SDS011;8829;47.932;7.810;2024-03-17T04:45:59;1.70;;;1.53;;
17422;SDS011;8829;47.932;7.810;2024-03-17T04:48:28;1.83;;;1.30;;
17422;SDS011;8829;47.932;7.810;2024-03-17T04:50:55;1.80;;;1.37;;
17422;SDS011;8829;47.932;7.810;2024-03-17T04:53:22;4.40;;;1.80;;
17422;SDS011;8829;47.932;7.810;2024-03-17T04:55:58;2.57;;;1.70;;
17422;SDS011;8829;47.932;7.810;2024-03-17T04:58:26;1.70;;;1.40;;
17422;SDS011;8829;47.932;7.810;2024-03-17T05:00:52;3.83;;;1.87;;
17422;SDS011;8829;47.932;7.810;2024-03-17T05:03:19;2.30;;;2.10;;
17422;SDS011;8829;47.932;7.810;2024-03-17T05:05:45;3.73;;;2.00;;
17422;SDS011;8829;47.932;7.810;2024-03-17T05:08:11;5.40;;;2.40;;
17422;SDS011;8829;47.932;7.810;2024-03-17T05:10:38;5.00;;;2.30;;
17422;SDS011;8829;47.932;7.810;2024-03-17T05:13:06;2.37;;;2.10;;
17422;SDS011;8829;47.932;7.810;2024-03-17T05:15:33;2.20;;;2.03;;
17422;SDS011;8829;47.932;7.810;2024-03-17T05:18:02;5.07;;;2.80;;
17422;SDS011;8829;47.932;7.810;2024-03-17T05:20:30;9.43;;;5.50;;
17422;SDS011;8829;47.932;7.810;2024-03-17T05:22:57;3.90;;;1.90;;
17422;SDS011;8829;47.932;7.810;2024-03-17T05:25:24;3.07;;;1.63;;
17422;SDS011;8829;47.932;7.810;2024-03-17T05:27:51;2.20;;;1.37;;
17422;SDS011;8829;47.932;7.810;2024-03-17T05:30:19;5.07;;;1.60;;
17422;SDS011;8829;47.932;7.810;2024-03-17T05:32:45;1.33;;;1.20;;
17422;SDS011;8829;47.932;7.810;2024-03-17T05:35:12;1.90;;;1.40;;
17422;SDS011;8829;47.932;7.810;2024-03-17T05:37:39;2.03;;;1.40;;
17422;SDS011;8829;47.932;7.810;2024-03-17T05:40:06;2.93;;;1.67;;
17422;SDS011;8829;47.932;7.810;2024-03-17T05:42:37;1.63;;;1.53;;
17422;SDS011;8829;47.932;7.810;2024-03-17T05:45:04;3.70;;;1.33;;
17422;SDS011;8829;47.932;7.810;2024-03-17T05:47:32;1.70;;;1.20;;
17422;SDS011;8829;47.932;7.810;2024-03-17T05:49:59;1.20;;;1.10;;
17422;SDS011;8829;47.932;7.810;2024-03-17T05:52:25;2.10;;;1.27;;
17422;SDS011;8829;47.932;7.810;2024-03-17T05:54:52;2.77;;;1.40;;
17422;SDS011;8829;47.932;7.810;2024-03-17T05:57:20;3.17;;;1.83;;
17422;SDS011;8829;47.932;7.810;2024-03-17T05:59:47;1.80;;;1.50;;
17422;SDS011;8829;47.932;7.810;2024-03-17T06:02:14;3.53;;;1.47;;
17422;SDS011;8829;47.932;7.810;2024-03-17T06:04:42;17.53;;;2.33;;
17422;SDS011;8829;47.932;7.810;2024-03-17T06:07:09;3.43;;;2.30;;
17422;SDS011;8829;47.932;7.810;2024-03-17T06:09:35;3.57;;;2.17;;
17422;SDS011;8829;47.932;7.810;2024-03-17T06:12:02;3.10;;;2.40;;
17422;SDS011;8829;47.932;7.810;2024-03-17T06:14:29;2.93;;;2.20;;
17422;SDS011;8829;47.932;7.810;2024-03-17T06:16:56;2.93;;;1.70;;
17422;SDS011;8829;47.932;7.810;2024-03-17T06:19:23;5.30;;;2.43;;
17422;SDS011;8829;47.932;7.810;2024-03-17T06:21:51;1.60;;;1.40;;
17422;SDS011;8829;47.932;7.810;2024-03-17T06:24:17;4.37;;;1.70;;
17422;SDS011;8829;47.932;7.810;2024-03-17T06:26:44;1.97;;;1.30;;
17422;SDS011;8829;47.932;7.810;2024-03-17T06:29:12;2.00;;;1.20;;
17422;SDS011;8829;47.932;7.810;2024-03-17T06:31:38;4.70;;;1.20;;
17422;SDS011;8829;47.932;7.810;2024-03-17T06:34:05;3.13;;;1.20;;
17422;SDS011;8829;47.932;7.810;2024-03-17T06:36:32;1.73;;;1.10;;
17422;SDS011;8829;47.932;7.810;2024-03-17T06:39:00;2.00;;;1.27;;
17422;SDS011;8829;47.932;7.810;2024-03-17T06:41:26;1.00;;;0.90;;
17422;SDS011;8829;47.932;7.810;2024-03-17T06:43:53;3.87;;;2.37;;
17422;SDS011;8829;47.932;7.810;2024-03-17T06:46:20;2.77;;;1.10;;
17422;SDS011;8829;47.932;7.810;2024-03-17T06:48:47;2.53;;;1.37;;
17422;SDS011;8829;47.932;7.810;2024-03-17T06:51:13;1.77;;;1.00;;
17422;SDS011;8829;47.932;7.810;2024-03-17T06:53:40;2.37;;;1.00;;
17422;SDS011;8829;47.932;7.810;2024-03-17T06:56:08;2.37;;;1.23;;
17422;SDS011;8829;47.932;7.810;2024-03-17T06:58:35;2.17;;;1.20;;
17422;SDS011;8829;47.932;7.810;2024-03-17T07:01:02;2.67;;;1.00;;
17422;SDS011;8829;47.932;7.810;2024-03-17T07:03:30;3.20;;;1.03;;
17422;SDS011;8829;47.932;7.810;2024-03-17T07:05:58;1.00;;;1.00;;
17422;SDS011;8829;47.932;7.810;2024-03-17T07:08:27;1.77;;;1.20;;
17422;SDS011;8829;47.932;7.810;2024-03-17T07:10:54;5.10;;;1.70;;
17422;SDS011;8829;47.932;7.810;2024-03-17T07:13:23;2.47;;;1.10;;
17422;SDS011;8829;47.932;7.810;2024-03-17T07:15:50;4.30;;;1.40;;
17422;SDS011;8829;47.932;7.810;2024-03-17T07:18:17;3.17;;;1.37;;
17422;SDS011;8829;47.932;7.810;2024-03-17T07:20:43;2.77;;;1.10;;
17422;SDS011;8829;47.932;7.810;2024-03-17T07:23:12;3.17;;;1.13;;
17422;SDS011;8829;47.932;7.810;2024-03-17T07:25:39;1.73;;;1.00;;
17422;SDS011;8829;47.932;7.810;2024-03-17T07:28:06;2.63;;;1.93;;
17422;SDS011;8829;47.932;7.810;2024-03-17T07:30:34;4.33;;;3.27;;
17422;SDS011;8829;47.932;7.810;2024-03-17T07:33:00;5.00;;;4.50;;
17422;SDS011;8829;47.932;7.810;2024-03-17T07:35:27;3.60;;;2.30;;
17422;SDS011;8829;47.932;7.810;2024-03-17T07:37:54;2.83;;;2.00;;
17422;SDS011;8829;47.932;7.810;2024-03-17T07:40:20;2.77;;;1.80;;
17422;SDS011;8829;47.932;7.810;2024-03-17T07:42:47;1.97;;;1.83;;
17422;SDS011;8829;47.932;7.810;2024-03-17T07:45:14;2.20;;;1.93;;
17422;SDS011;8829;47.932;7.810;2024-03-17T07:47:43;3.50;;;1.73;;
17422;SDS011;8829;47.932;7.810;2024-03-17T07:50:10;3.17;;;1.60;;
17422;SDS011;8829;47.932;7.810;2024-03-17T07:52:37;2.00;;;1.80;;
17422;SDS011;8829;47.932;7.810;2024-03-17T07:55:04;3.40;;;1.80;;
17422;SDS011;8829;47.932;7.810;2024-03-17T07:57:34;3.87;;;2.33;;
17422;SDS011;8829;47.932;7.810;2024-03-17T08:00:01;4.87;;;2.73;;
17422;SDS011;8829;47.932;7.810;2024-03-17T08:02:28;2.37;;;2.07;;
17422;SDS011;8829;47.932;7.810;2024-03-17T08:04:56;3.57;;;2.83;;
17422;SDS011;8829;47.932;7.810;2024-03-17T08:07:23;2.30;;;2.03;;
17422;SDS011;8829;47.932;7.810;2024-03-17T08:09:49;3.27;;;2.57;;
17422;SDS011;8829;47.932;7.810;2024-03-17T08:12:16;3.47;;;2.17;;
17422;SDS011;8829;47.932;7.810;2024-03-17T08:14:43;2.33;;;2.10;;
17422;SDS011;8829;47.932;7.810;2024-03-17T08:17:09;3.23;;;2.00;;
17422;SDS011;8829;47.932;7.810;2024-03-17T08:19:36;4.80;;;2.53;;
17422;SDS011;8829;47.932;7.810;2024-03-17T08:22:05;4.47;;;2.73;;
17422;SDS011;8829;47.932;7.810;2024-03-17T08:24:32;2.47;;;2.17;;
17422;SDS011;8829;47.932;7.810;2024-03-17T08:26:58;2.20;;;1.90;;
17422;SDS011;8829;47.932;7.810;2024-03-17T08:29:25;4.93;;;2.37;;
17422;SDS011;8829;47.932;7.810;2024-03-17T08:31:52;4.63;;;2.57;;
17422;SDS011;8829;47.932;7.810;2024-03-17T08:34:18;3.30;;;2.23;;
17422;SDS011;8829;47.932;7.810;2024-03-17T08:36:45;2.80;;;2.57;;
17422;SDS011;8829;47.932;7.810;2024-03-17T08:39:13;3.83;;;2.60;;
17422;SDS011;8829;47.932;7.810;2024-03-17T08:41:40;2.63;;;2.37;;
17422;SDS011;8829;47.932;7.810;2024-03-17T08:44:09;5.47;;;2.40;;
17422;SDS011;8829;47.932;7.810;2024-03-17T08:46:36;3.17;;;2.60;;
17422;SDS011;8829;47.932;7.810;2024-03-17T08:49:02;3.20;;;2.60;;
17422;SDS011;8829;47.932;7.810;2024-03-17T08:51:29;5.10;;;2.53;;
17422;SDS011;8829;47.932;7.810;2024-03-17T08:53:57;3.83;;;2.63;;
17422;SDS011;8829;47.932;7.810;2024-03-17T08:56:25;5.03;;;3.27;;
17422;SDS011;8829;47.932;7.810;2024-03-17T08:58:52;6.00;;;3.20;;
17422;SDS011;8829;47.932;7.810;2024-03-17T09:01:19;4.93;;;2.67;;
17422;SDS011;8829;47.932;7.810;2024-03-17T09:03:46;4.83;;;2.93;;
17422;SDS011;8829;47.932;7.810;2024-03-17T09:06:14;5.50;;;3.20;;
17422;SDS011;8829;47.932;7.810;2024-03-17T09:08:43;3.50;;;2.63;;
17422;SDS011;8829;47.932;7.810;2024-03-17T09:11:11;5.23;;;2.67;;
17422;SDS011;8829;47.932;7.810;2024-03-17T09:13:40;6.27;;;3.07;;
17422;SDS011;8829;47.932;7.810;2024-03-17T09:16:07;5.17;;;3.17;;
17422;SDS011;8829;47.932;7.810;2024-03-17T09:18:36;3.50;;;2.63;;
17422;SDS011;8829;47.932;7.810;2024-03-17T09:21:05;3.40;;;2.90;;
17422;SDS011;8829;47.932;7.810;2024-03-17T09:23:33;3.43;;;3.13;;
17422;SDS011;8829;47.932;7.810;2024-03-17T09:26:02;2.97;;;2.70;;
17422;SDS011;8829;47.932;7.810;2024-03-17T09:28:30;3.03;;;2.73;;
17422;SDS011;8829;47.932;7.810;2024-03-17T09:30:59;5.97;;;3.00;;
17422;SDS011;8829;47.932;7.810;2024-03-17T09:33:27;3.20;;;2.80;;
17422;SDS011;8829;47.932;7.810;2024-03-17T09:35:55;5.00;;;3.00;;
17422;SDS011;8829;47.932;7.810;2024-03-17T09:38:22;5.10;;;3.17;;
17422;SDS011;8829;47.932;7.810;2024-03-17T09:40:49;4.57;;;3.50;;
17422;SDS011;8829;47.932;7.810;2024-03-17T09:43:18;3.03;;;2.80;;
17422;SDS011;8829;47.932;7.810;2024-03-17T09:45:46;3.83;;;3.00;;
17422;SDS011;8829;47.932;7.810;2024-03-17T09:48:15;5.23;;;3.03;;
17422;SDS011;8829;47.932;7.810;2024-03-17T09:53:15;3.30;;;3.00;;
17422;SDS011;8829;47.932;7.810;2024-03-17T09:55:44;5.50;;;3.17;;
17422;SDS011;8829;47.932;7.810;2024-03-17T09:58:13;3.70;;;3.13;;
17422;SDS011;8829;47.932;7.810;2024-03-17T10:00:42;6.03;;;3.00;;
17422;SDS011;8829;47.932;7.810;2024-03-17T10:03:09;3.63;;;3.20;;
17422;SDS011;8829;47.932;7.810;2024-03-17T10:05:37;4.33;;;2.87;;
17422;SDS011;8829;47.932;7.810;2024-03-17T10:08:05;4.40;;;3.17;;
17422;SDS011;8829;47.932;7.810;2024-03-17T10:10:33;3.47;;;3.00;;
17422;SDS011;8829;47.932;7.810;2024-03-17T10:13:00;3.23;;;2.93;;
17422;SDS011;8829;47.932;7.810;2024-03-17T10:15:27;4.17;;;3.63;;
17422;SDS011;8829;47.932;7.810;2024-03-17T10:17:54;6.43;;;3.07;;
17422;SDS011;8829;47.932;7.810;2024-03-17T10:20:21;3.87;;;3.23;;
17422;SDS011;8829;47.932;7.810;2024-03-17T10:22:59;6.17;;;3.40;;
17422;SDS011;8829;47.932;7.810;2024-03-17T10:25:25;4.07;;;3.47;;
17422;SDS011;8829;47.932;7.810;2024-03-17T10:27:53;5.57;;;3.50;;
17422;SDS011;8829;47.932;7.810;2024-03-17T10:30:20;7.20;;;4.17;;
17422;SDS011;8829;47.932;7.810;2024-03-17T10:32:54;5.03;;;3.40;;
17422;SDS011;8829;47.932;7.810;2024-03-17T10:35:25;3.70;;;3.30;;
17422;SDS011;8829;47.932;7.810;2024-03-17T10:37:53;4.47;;;3.73;;
17422;SDS011;8829;47.932;7.810;2024-03-17T10:40:22;4.73;;;3.97;;
17422;SDS011;8829;47.932;7.810;2024-03-17T10:42:50;4.43;;;4.00;;
17422;SDS011;8829;47.932;7.810;2024-03-17T10:45:17;4.47;;;3.40;;
17422;SDS011;8829;47.932;7.810;2024-03-17T10:47:47;6.87;;;4.83;;
17422;SDS011;8829;47.932;7.810;2024-03-17T10:50:16;6.33;;;4.30;;
17422;SDS011;8829;47.932;7.810;2024-03-17T10:52:45;6.63;;;3.83;;
17422;SDS011;8829;47.932;7.810;2024-03-17T10:55:19;4.37;;;3.70;;
17422;SDS011;8829;47.932;7.810;2024-03-17T10:57:49;7.13;;;4.00;;
17422;SDS011;8829;47.932;7.810;2024-03-17T11:00:18;6.17;;;4.07;;
17422;SDS011;8829;47.932;7.810;2024-03-17T11:02:47;4.60;;;4.20;;
17422;SDS011;8829;47.932;7.810;2024-03-17T11:05:16;9.70;;;4.03;;
17422;SDS011;8829;47.932;7.810;2024-03-17T11:07:45;5.63;;;4.07;;
17422;SDS011;8829;47.932;7.810;2024-03-17T11:10:18;5.60;;;3.80;;
17422;SDS011;8829;47.932;7.810;2024-03-17T11:12:48;5.37;;;4.20;;
17422;SDS011;8829;47.932;7.810;2024-03-17T11:15:38;4.97;;;3.87;;
17422;SDS011;8829;47.932;7.810;2024-03-17T11:21:04;6.97;;;4.53;;
17422;SDS011;8829;47.932;7.810;2024-03-17T11:23:54;4.50;;;3.50;;
17422;SDS011;8829;47.932;7.810;2024-03-17T11:26:26;6.47;;;3.77;;
17422;SDS011;8829;47.932;7.810;2024-03-17T11:28:55;4.33;;;3.67;;
17422;SDS011;8829;47.932;7.810;2024-03-17T11:31:39;5.10;;;3.90;;
17422;SDS011;8829;47.932;7.810;2024-03-17T11:36:56;6.23;;;4.13;;
17422;SDS011;8829;47.932;7.810;2024-03-17T11:42:16;9.27;;;4.73;;
17422;SDS011;8829;47.932;7.810;2024-03-17T11:44:43;5.13;;;4.20;;
17422;SDS011;8829;47.932;7.810;2024-03-17T11:47:21;5.10;;;4.60;;
17422;SDS011;8829;47.932;7.810;2024-03-17T11:49:47;6.40;;;4.83;;
17422;SDS011;8829;47.932;7.810;2024-03-17T11:52:15;6.83;;;4.40;;
17422;SDS011;8829;47.932;7.810;2024-03-17T11:54:42;4.57;;;3.90;;
17422;SDS011;8829;47.932;7.810;2024-03-17T11:57:10;5.33;;;4.03;;
17422;SDS011;8829;47.932;7.810;2024-03-17T11:59:37;6.10;;;4.13;;
17422;SDS011;8829;47.932;7.810;2024-03-17T12:02:13;6.13;;;4.30;;
17422;SDS011;8829;47.932;7.810;2024-03-17T12:04:42;5.57;;;4.40;;
17422;SDS011;8829;47.932;7.810;2024-03-17T12:07:10;5.93;;;4.00;;
17422;SDS011;8829;47.932;7.810;2024-03-17T12:09:38;4.33;;;3.43;;
17422;SDS011;8829;47.932;7.810;2024-03-17T12:12:08;6.33;;;3.90;;
17422;SDS011;8829;47.932;7.810;2024-03-17T12:14:35;6.73;;;4.13;;
17422;SDS011;8829;47.932;7.810;2024-03-17T12:17:03;3.97;;;3.50;;
17422;SDS011;8829;47.932;7.810;2024-03-17T12:19:31;4.73;;;3.70;;
17422;SDS011;8829;47.932;7.810;2024-03-17T12:21:58;4.03;;;3.70;;
17422;SDS011;8829;47.932;7.810;2024-03-17T12:24:25;5.13;;;3.80;;
17422;SDS011;8829;47.932;7.810;2024-03-17T12:26:54;4.40;;;4.00;;
17422;SDS011;8829;47.932;7.810;2024-03-17T12:29:24;6.93;;;4.30;;
17422;SDS011;8829;47.932;7.810;2024-03-17T12:31:55;5.97;;;4.23;;
17422;SDS011;8829;47.932;7.810;2024-03-17T12:34:22;5.00;;;4.37;;
17422;SDS011;8829;47.932;7.810;2024-03-17T12:36:53;7.00;;;4.77;;
17422;SDS011;8829;47.932;7.810;2024-03-17T12:39:21;5.87;;;4.17;;
17422;SDS011;8829;47.932;7.810;2024-03-17T12:42:00;5.73;;;4.30;;
17422;SDS011;8829;47.932;7.810;2024-03-17T12:44:30;4.97;;;4.00;;
17422;SDS011;8829;47.932;7.810;2024-03-17T12:46:58;6.53;;;4.37;;
17422;SDS011;8829;47.932;7.810;2024-03-17T12:49:25;6.23;;;4.80;;
17422;SDS011;8829;47.932;7.810;2024-03-17T12:51:54;5.23;;;4.70;;
17422;SDS011;8829;47.932;7.810;2024-03-17T12:54:21;5.80;;;4.37;;
17422;SDS011;8829;47.932;7.810;2024-03-17T12:56:49;11.87;;;5.50;;
17422;SDS011;8829;47.932;7.810;2024-03-17T12:59:38;7.13;;;4.83;;
17422;SDS011;8829;47.932;7.810;2024-03-17T13:02:40;6.33;;;5.20;;
17422;SDS011;8829;47.932;7.810;2024-03-17T13:05:11;6.43;;;5.20;;
17422;SDS011;8829;47.932;7.810;2024-03-17T13:07:41;7.63;;;4.80;;
17422;SDS011;8829;47.932;7.810;2024-03-17T13:10:09;7.73;;;5.17;;
17422;SDS011;8829;47.932;7.810;2024-03-17T13:12:36;6.23;;;5.10;;
17422;SDS011;8829;47.932;7.810;2024-03-17T13:15:03;7.53;;;5.47;;
17422;SDS011;8829;47.932;7.810;2024-03-17T13:17:31;7.73;;;5.10;;
17422;SDS011;8829;47.932;7.810;2024-03-17T13:19:59;7.50;;;5.50;;
17422;SDS011;8829;47.932;7.810;2024-03-17T13:22:25;7.07;;;4.60;;
17422;SDS011;8829;47.932;7.810;2024-03-17T13:24:53;7.43;;;4.90;;
17422;SDS011;8829;47.932;7.810;2024-03-17T13:27:20;8.20;;;5.37;;
17422;SDS011;8829;47.932;7.810;2024-03-17T13:29:47;10.00;;;6.47;;
17422;SDS011;8829;47.932;7.810;2024-03-17T13:32:14;10.47;;;5.30;;
17422;SDS011;8829;47.932;7.810;2024-03-17T13:34:42;6.17;;;5.17;;
17422;SDS011;8829;47.932;7.810;2024-03-17T13:37:09;6.43;;;5.10;;
17422;SDS011;8829;47.932;7.810;2024-03-17T13:39:36;6.33;;;4.73;;
17422;SDS011;8829;47.932;7.810;2024-03-17T13:42:04;6.37;;;5.10;;
17422;SDS011;8829;47.932;7.810;2024-03-17T13:44:32;13.20;;;6.30;;
17422;SDS011;8829;47.932;7.810;2024-03-17T13:46:59;8.53;;;5.37;;
17422;SDS011;8829;47.932;7.810;2024-03-17T13:49:28;7.13;;;5.60;;
17422;SDS011;8829;47.932;7.810;2024-03-17T13:51:55;9.63;;;6.50;;
17422;SDS011;8829;47.932;7.810;2024-03-17T13:54:22;7.80;;;5.87;;
17422;SDS011;8829;47.932;7.810;2024-03-17T13:56:49;8.17;;;5.80;;
17422;SDS011;8829;47.932;7.810;2024-03-17T13:59:17;5.87;;;5.23;;
17422;SDS011;8829;47.932;7.810;2024-03-17T14:01:44;6.23;;;5.30;;
17422;SDS011;8829;47.932;7.810;2024-03-17T14:04:12;8.17;;;5.60;;
17422;SDS011;8829;47.932;7.810;2024-03-17T14:06:40;6.30;;;5.47;;
17422;SDS011;8829;47.932;7.810;2024-03-17T14:09:07;6.13;;;4.43;;
17422;SDS011;8829;47.932;7.810;2024-03-17T14:11:35;7.20;;;4.70;;
17422;SDS011;8829;47.932;7.810;2024-03-17T14:14:02;5.67;;;4.40;;
17422;SDS011;8829;47.932;7.810;2024-03-17T14:16:31;7.80;;;5.27;;
17422;SDS011;8829;47.932;7.810;2024-03-17T14:18:58;6.93;;;4.53;;
17422;SDS011;8829;47.932;7.810;2024-03-17T14:21:26;4.93;;;4.43;;
17422;SDS011;8829;47.932;7.810;2024-03-17T14:23:52;6.80;;;3.97;;
17422;SDS011;8829;47.932;7.810;2024-03-17T14:26:20;6.80;;;4.37;;
17422;SDS011;8829;47.932;7.810;2024-03-17T14:28:47;4.83;;;4.37;;
17422;SDS011;8829;47.932;7.810;2024-03-17T14:31:15;4.77;;;3.73;;
17422;SDS011;8829;47.932;7.810;2024-03-17T14:33:43;7.47;;;4.53;;
17422;SDS011;8829;47.932;7.810;2024-03-17T14:36:10;5.60;;;4.10;;
17422;SDS011;8829;47.932;7.810;2024-03-17T14:38:37;4.20;;;3.80;;
17422;SDS011;8829;47.932;7.810;2024-03-17T14:41:03;3.90;;;3.50;;
17422;SDS011;8829;47.932;7.810;2024-03-17T14:43:31;4.27;;;3.80;;
17422;SDS011;8829;47.932;7.810;2024-03-17T14:45:56;5.87;;;4.27;;
17422;SDS011;8829;47.932;7.810;2024-03-17T14:48:23;4.97;;;4.13;;
17422;SDS011;8829;47.932;7.810;2024-03-17T14:50:51;5.57;;;3.70;;
17422;SDS011;8829;47.932;7.810;2024-03-17T14:53:18;5.80;;;3.60;;
17422;SDS011;8829;47.932;7.810;2024-03-17T14:55:45;5.67;;;3.60;;
17422;SDS011;8829;47.932;7.810;2024-03-17T14:58:12;8.10;;;4.50;;
17422;SDS011;8829;47.932;7.810;2024-03-17T15:00:40;5.40;;;4.47;;
17422;SDS011;8829;47.932;7.810;2024-03-17T15:03:07;5.17;;;4.10;;
17422;SDS011;8829;47.932;7.810;2024-03-17T15:05:34;7.87;;;4.60;;
17422;SDS011;8829;47.932;7.810;2024-03-17T15:08:02;6.67;;;4.40;;
17422;SDS011;8829;47.932;7.810;2024-03-17T15:10:28;4.77;;;4.30;;
17422;SDS011;8829;47.932;7.810;2024-03-17T15:12:55;6.03;;;4.77;;
17422;SDS011;8829;47.932;7.810;2024-03-17T15:15:22;8.77;;;5.27;;